• Join FlightAware (Why Join?)
  • Login
  • US Flag 
09:12PM EST


 

Airport Tracker/Info


-or-


 

Live Flight TrackerFlight Track Log ✈ JBU1503 ✈ 15-Nov-2013 ✈ KJFK - TJSJ / SJU

Flight Track Log - Related Links

Times and Time Zones

All times are in EST time to prevent confusion due to time zone crossing. See the JBU1503 flight status page for this flight to view local times or setup timezone preferences in your user account.

Time Position Orientation Groundspeed Altitude Reporting Facility
EST Latitude Longitude Course Direction KTS MPH feet Rate Location/Type
12:14AM 40.1481 -73.5572 125° Southeast  Level Estimated
12:15AM 40.1078 -73.3956 108° East  Level FlightAware Approximate
12:16AM 40.0673 -73.2342 108° East  Level FlightAware Approximate
12:17AM 39.9456 -73.1820 126° Southeast  Level Estimated
12:18AM 39.8239 -73.1301 123° Southeast  Level Estimated
12:19AM 39.7021 -73.0783 129° Southeast  Level Estimated
12:19AM 40.1683 -73.1878 130° Southeast 376 433 18,500  Level New York Center
12:20AM 39.6744 -72.9158 102° East  Level FlightAware Approximate
12:20AM 40.1006 -73.1019 136° Southeast 395 455 19,700  Level New York Center
12:21AM 39.6464 -72.7535 103° East  Level FlightAware Approximate
12:21AM 40.0194 -72.9997 136° Southeast 407 468 21,000  Level New York Center
12:22AM 39.5241 -72.7040 129° Southeast  Level Estimated
12:22AM 39.9339 -72.8933 136° Southeast 425 489 22,200  Level New York Center
12:23AM 39.4018 -72.6547 148° Southeast  Level Estimated
12:23AM 39.8464 -72.7850 136° Southeast 434 499 23,000  Level New York Center
12:24AM 39.3188 -72.5286 130° Southeast  Level FlightAware Approximate
12:24AM 39.7581 -72.6769 137° Southeast 438 504 23,900  Level New York Center
12:25AM 39.6689 -72.5650 136° Southeast 445 512 25,100 1,320 Climbing New York Center
12:26AM 39.5586 -72.4308 137° Southeast 452 520 26,600 1,260 Climbing New York Center
12:27AM 39.4658 -72.3167 136° Southeast 459 528 27,700 1,260 Climbing New York Center
12:28AM 39.3731 -72.2031 137° Southeast 461 531 29,200 1,380 Climbing New York Center
12:29AM 39.2794 -72.0908 137° Southeast 461 531 30,500 1,140 Climbing New York Center
12:30AM 39.1886 -71.9797 137° Southeast 456 525 31,500 720 Climbing New York Center
12:31AM 39.0964 -71.8639 136° Southeast 459 528 32,000 480 Climbing New York Center
12:32AM 38.9992 -71.7497 138° Southeast 466 536 32,500 540 Climbing New York Center
12:33AM 38.9006 -71.6317 137° Southeast 475 547 33,100 600 Climbing New York Center
12:34AM 38.8000 -71.5128 137° Southeast 484 557 33,700 600 Climbing New York Center
12:35AM 38.6997 -71.3925 137° Southeast 490 564 34,400 600 Climbing New York Center
12:36AM 38.5992 -71.2731 137° Southeast 493 567 35,000 300 Climbing New York Center
12:37AM 38.4989 -71.1517 137° Southeast 495 570 35,000  Level New York Center
12:38AM 38.3956 -71.0378 139° Southeast 494 568 35,000  Level New York Center
12:39AM 38.2933 -70.9208 138° Southeast 494 568 35,000  Level New York Center
12:40AM 38.1908 -70.7997 137° Southeast 500 575 35,000  Level New York Center
12:41AM 38.0903 -70.6794 137° Southeast 500 575 35,000  Level New York Center
12:42AM 37.9853 -70.5689 140° Southeast 494 568 35,000  Level New York Center
12:43AM 37.8683 -70.4950 153° Southeast 475 547 35,000  Level New York Center
12:45AM 37.6969 -70.3914 155° Southeast  Level FlightAware Approximate
12:52AM 36.9007 -69.8941 154° Southeast  Level FlightAware Approximate
12:53AM 36.7851 -69.8251 154° Southeast  Level FlightAware Approximate
12:54AM 36.6695 -69.7563 154° Southeast  Level FlightAware Approximate
12:55AM 36.5538 -69.6877 155° Southeast  Level FlightAware Approximate
12:56AM 36.4382 -69.6193 155° Southeast  Level FlightAware Approximate
12:57AM 36.3224 -69.5512 155° Southeast  Level FlightAware Approximate
12:58AM 36.2067 -69.4832 155° Southeast  Level FlightAware Approximate
12:59AM 36.0862 -69.4324 167° South  Level FlightAware Approximate
01:00AM 35.9612 -69.3981 167° South  Level FlightAware Approximate
01:01AM 35.8361 -69.3639 167° South  Level FlightAware Approximate
01:01AM 36.1667 -69.4500 168° South 472 543 35,000  Level New York Oceanic (ODAPS)
01:02AM 35.7111 -69.3298 168° South  Level FlightAware Approximate
01:03AM 35.5860 -69.2958 168° South  Level FlightAware Approximate
01:04AM 35.4610 -69.2619 168° South  Level FlightAware Approximate
01:05AM 35.3359 -69.2282 168° South  Level FlightAware Approximate
01:06AM 35.2108 -69.1945 168° South  Level FlightAware Approximate
01:07AM 35.0083 -69.1413 168° South 472 543 35,000  Level FlightAware Transoceanic
01:08AM 34.8796 -69.1075 168° South 472 543 35,000  Level FlightAware Transoceanic
01:09AM 34.7508 -69.0739 168° South 472 543 35,000  Level FlightAware Transoceanic
01:10AM 34.6221 -69.0403 168° South 472 543 35,000  Level FlightAware Transoceanic
01:11AM 34.4933 -69.0069 168° South 472 543 35,000  Level FlightAware Transoceanic
01:12AM 34.3645 -68.9735 168° South 472 543 35,000  Level FlightAware Transoceanic
01:13AM 34.2357 -68.9403 168° South 472 543 35,000  Level FlightAware Transoceanic
01:14AM 34.1069 -68.9071 168° South 472 543 35,000  Level FlightAware Transoceanic
01:15AM 33.9781 -68.8741 168° South 472 543 35,000  Level FlightAware Transoceanic
01:16AM 33.8492 -68.8412 168° South 472 543 35,000  Level FlightAware Transoceanic
01:17AM 33.7204 -68.8083 168° South 472 543 35,000  Level FlightAware Transoceanic
01:18AM 33.5916 -68.7756 168° South 472 543 35,000  Level FlightAware Transoceanic
01:19AM 33.4627 -68.7429 168° South 472 543 35,000  Level FlightAware Transoceanic
01:20AM 33.3339 -68.7104 168° South 472 543 35,000  Level FlightAware Transoceanic
01:21AM 33.2050 -68.6779 168° South 472 543 35,000  Level FlightAware Transoceanic
01:22AM 33.0761 -68.6456 168° South 472 543 35,000  Level FlightAware Transoceanic
01:23AM 32.9472 -68.6133 168° South 472 543 35,000  Level FlightAware Transoceanic
01:24AM 32.8183 -68.5812 168° South 472 543 35,000  Level FlightAware Transoceanic
01:25AM 32.6894 -68.5491 168° South 472 543 35,000  Level FlightAware Transoceanic
01:26AM 32.5605 -68.5171 168° South 472 543 35,000  Level FlightAware Transoceanic
01:27AM 32.4316 -68.4852 168° South 472 543 35,000  Level FlightAware Transoceanic
01:28AM 32.3027 -68.4534 168° South 472 543 35,000  Level FlightAware Transoceanic
01:29AM 32.1738 -68.4217 168° South 472 543 35,000  Level FlightAware Transoceanic
01:30AM 32.0448 -68.3901 168° South 472 543 35,000  Level FlightAware Transoceanic
01:31AM 31.9159 -68.3586 168° South 472 543 35,000  Level FlightAware Transoceanic
01:32AM 31.7869 -68.3271 168° South 472 543 35,000  Level FlightAware Transoceanic
01:33AM 31.6579 -68.2958 168° South 472 543 35,000  Level FlightAware Transoceanic
01:34AM 31.5290 -68.2645 168° South 472 543 35,000  Level FlightAware Transoceanic
01:35AM 31.4000 -68.2333 168° South 472 543 35,000  Level FlightAware Transoceanic
01:36AM 31.2612 -68.2000 168° South 472 543 35,000  Level FlightAware Transoceanic
01:37AM 31.1223 -68.1667 168° South 472 543 35,000  Level FlightAware Transoceanic
01:38AM 30.9834 -68.1335 168° South 472 543 35,000  Level FlightAware Transoceanic
01:39AM 30.8445 -68.1004 168° South 472 543 35,000  Level FlightAware Transoceanic
01:40AM 30.7057 -68.0674 168° South 472 543 35,000  Level FlightAware Transoceanic
01:41AM 30.5668 -68.0345 168° South 472 543 35,000  Level FlightAware Transoceanic
01:42AM 30.4279 -68.0016 169° South 472 543 35,000  Level FlightAware Transoceanic
01:43AM 30.2890 -67.9689 169° South 472 543 35,000  Level FlightAware Transoceanic
01:44AM 30.1500 -67.9363 169° South 472 543 35,000  Level FlightAware Transoceanic
01:45AM 30.0111 -67.9038 169° South 472 543 35,000  Level FlightAware Transoceanic
01:46AM 29.8722 -67.8713 169° South 472 543 35,000  Level FlightAware Transoceanic
01:47AM 29.7332 -67.8390 169° South 472 543 35,000  Level FlightAware Transoceanic
01:48AM 29.5943 -67.8067 169° South 472 543 35,000  Level FlightAware Transoceanic
01:49AM 29.4553 -67.7745 169° South 472 543 35,000  Level FlightAware Transoceanic
01:50AM 29.3164 -67.7424 169° South 472 543 35,000  Level FlightAware Transoceanic
01:51AM 29.1774 -67.7104 169° South 472 543 35,000  Level FlightAware Transoceanic
01:52AM 29.0384 -67.6785 169° South 472 543 35,000  Level FlightAware Transoceanic
01:53AM 28.8994 -67.6467 169° South 472 543 35,000  Level FlightAware Transoceanic
01:54AM 28.7604 -67.6150 169° South 472 543 35,000  Level FlightAware Transoceanic
01:55AM 28.6214 -67.5833 169° South 472 543 35,000  Level FlightAware Transoceanic
01:56AM 28.4824 -67.5517 169° South 472 543 35,000  Level FlightAware Transoceanic
01:57AM 28.3434 -67.5202 169° South 472 543 35,000  Level FlightAware Transoceanic
01:58AM 28.2044 -67.4888 169° South 472 543 35,000  Level FlightAware Transoceanic
01:59AM 28.0653 -67.4575 169° South 472 543 35,000  Level FlightAware Transoceanic
02:00AM 27.9263 -67.4263 169° South 472 543 35,000  Level FlightAware Transoceanic
02:01AM 27.7873 -67.3951 169° South 472 543 35,000  Level FlightAware Transoceanic
02:02AM 27.6482 -67.3640 169° South 472 543 35,000  Level FlightAware Transoceanic
02:03AM 27.5091 -67.3330 169° South 472 543 35,000  Level FlightAware Transoceanic
02:04AM 27.3701 -67.3021 169° South 472 543 35,000  Level FlightAware Transoceanic
02:05AM 27.2310 -67.2712 169° South 472 543 35,000  Level FlightAware Transoceanic
02:06AM 27.0919 -67.2405 169° South 472 543 35,000  Level FlightAware Transoceanic
02:07AM 26.9528 -67.2098 169° South 472 543 35,000  Level FlightAware Transoceanic
02:08AM 26.8137 -67.1791 169° South 472 543 35,000  Level FlightAware Transoceanic
02:09AM 26.6747 -67.1486 169° South 472 543 35,000  Level FlightAware Transoceanic
02:09AM 27.0833 -67.2500 169° South 474 545 35,000  Level New York Oceanic (ODAPS)
02:10AM 26.5355 -67.1181 169° South 472 543 35,000  Level FlightAware Transoceanic
02:11AM 26.3964 -67.0877 169° South 472 543 35,000  Level FlightAware Transoceanic
02:12AM 26.2573 -67.0574 169° South 472 543 35,000  Level FlightAware Transoceanic
02:13AM 26.1182 -67.0271 169° South 472 543 35,000  Level FlightAware Transoceanic
02:14AM 25.9791 -66.9970 169° South 472 543 35,000  Level FlightAware Transoceanic
02:15AM 25.8399 -66.9669 169° South 472 543 35,000  Level FlightAware Transoceanic
02:16AM 25.9120 -66.9906 169° South 474 545 35,000  Level FlightAware Transoceanic
02:17AM 25.7818 -66.9621 169° South 474 545 35,000  Level FlightAware Transoceanic
02:18AM 25.6517 -66.9336 169° South 474 545 35,000  Level FlightAware Transoceanic
02:19AM 25.5215 -66.9053 169° South 474 545 35,000  Level FlightAware Transoceanic
02:20AM 25.3913 -66.8770 169° South 474 545 35,000  Level FlightAware Transoceanic
02:21AM 25.2611 -66.8487 169° South 474 545 35,000  Level FlightAware Transoceanic
02:22AM 25.1309 -66.8205 169° South 474 545 35,000  Level FlightAware Transoceanic
02:23AM 25.0007 -66.7924 169° South 474 545 35,000  Level FlightAware Transoceanic
02:24AM 24.8705 -66.7643 169° South 474 545 35,000  Level FlightAware Transoceanic
02:25AM 24.7402 -66.7363 169° South 474 545 35,000  Level FlightAware Transoceanic
02:26AM 24.6100 -66.7083 169° South 474 545 35,000  Level FlightAware Transoceanic
02:27AM 24.4798 -66.6804 169° South 474 545 35,000  Level FlightAware Transoceanic
02:28AM 24.3496 -66.6526 169° South 474 545 35,000  Level FlightAware Transoceanic
02:29AM 24.2193 -66.6248 169° South 474 545 35,000  Level FlightAware Transoceanic
02:30AM 24.0891 -66.5971 169° South 474 545 35,000  Level FlightAware Transoceanic
02:31AM 23.9588 -66.5694 169° South 474 545 35,000  Level FlightAware Transoceanic
02:32AM 23.8286 -66.5418 169° South 474 545 35,000  Level FlightAware Transoceanic
02:33AM 23.6983 -66.5142 169° South 474 545 35,000  Level FlightAware Transoceanic
02:34AM 23.5681 -66.4867 169° South 474 545 35,000  Level FlightAware Transoceanic
02:35AM 23.4378 -66.4593 169° South 474 545 35,000  Level FlightAware Transoceanic
02:36AM 23.3075 -66.4319 169° South 474 545 35,000  Level FlightAware Transoceanic
02:37AM 23.1772 -66.4045 169° South 474 545 35,000  Level FlightAware Transoceanic
02:38AM 23.0469 -66.3772 169° South 474 545 35,000  Level FlightAware Transoceanic
02:39AM 22.9167 -66.3500 169° South 474 545 35,000 1,680 Level FlightAware Transoceanic
02:39AM 22.9167 -66.3500 169° South 543 625 37,000 2,100 Climbing New York Oceanic (ODAPS)
02:39AM 22.4667 -66.2833 169° South 570 656 37,000 -2,400 Level San Juan Center
02:40AM 22.7695 -66.3193 169° South 474 545 35,000  Descending FlightAware Transoceanic
02:40AM 22.3333 -66.2500 167° South 550 633 37,000  Climbing San Juan Center
02:41AM 22.6222 -66.2886 169° South 474 545 35,000  Descending FlightAware Transoceanic
02:41AM 22.2000 -66.2000 161° South 510 587 37,000  Climbing San Juan Center
02:42AM 22.4750 -66.2580 169° South 474 545 35,000  Descending FlightAware Transoceanic
02:42AM 22.0500 -66.1833 174° South 530 610 37,000  Climbing San Juan Center
02:43AM 22.3278 -66.2275 169° South 474 545 35,000  Descending FlightAware Transoceanic
02:43AM 21.9000 -66.1667 174° South 510 587 37,000  Climbing San Juan Center
02:44AM 22.1806 -66.1971 169° South 474 545 35,000  Descending FlightAware Transoceanic
02:44AM 21.7667 -66.1333 167° South 530 610 37,000 1,980 Climbing San Juan Center
02:45AM 21.7500 -66.1082 169° South 543 625 37,000  Level FlightAware Transoceanic
02:45AM 21.6333 -66.0833 161° South 510 587 37,000  Level San Juan Center
02:46AM 21.4833 -66.0833 180° South 540 621 37,000  Level San Juan Center
02:47AM 21.3333 -66.0667 174° South 510 587 37,000  Level San Juan Center
02:48AM 21.2000 -66.0833 187° South 500 575 37,000  Level San Juan Center
02:49AM 21.0500 -66.1000 186° South 510 587 37,000 -60 Level San Juan Center
02:50AM 20.9167 -66.1000 180° South 480 552 36,900 -540 Descending San Juan Center
02:51AM 20.7833 -66.1000 180° South 500 575 36,000 -1,380 Descending San Juan Center
02:52AM 20.6333 -66.1000 180° South 490 564 34,200 -2,100 Descending San Juan Center
02:53AM 20.5000 -66.1167 187° South 510 587 31,800 -2,340 Descending San Juan Center
02:54AM 20.3500 -66.1167 180° South 510 587 29,600 -2,040 Descending San Juan Center
02:56AM 20.2167 -66.1167 180° South 500 575 27,700 -2,040 Descending San Juan Center
02:57AM 20.0833 -66.1333 187° South 470 541 25,500 -2,160 Descending San Juan Center
02:58AM 19.9667 -66.1333 180° South 450 518 23,400 -2,100 Descending San Juan Center
02:59AM 19.8333 -66.1333 180° South 430 495 21,400 -1,860 Descending San Juan Center
03:00AM 19.7167 -66.1500 188° South 420 483 19,700 -1,860 Descending San Juan Center
03:01AM 19.6000 -66.1500 180° South 410 472 17,700 -1,980 Descending San Juan Center
03:02AM 19.5000 -66.1500 180° South 400 460 15,800 -1,980 Descending San Juan Center
03:03AM 19.3833 -66.1500 180° South 380 437 13,800 -1,740 Descending San Juan Center
03:04AM 19.2833 -66.1500 180° South 360 414 12,400 -1,440 Descending San Juan Center
03:05AM 19.2000 -66.1667 191° South 340 391 11,000 -1,380 Descending San Juan Center
03:06AM 19.1000 -66.1667 180° South 320 368 9,700 -1,260 Descending San Juan Center
03:07AM 19.0000 -66.1667 180° South 300 345 8,500 -1,200 Descending San Juan Center
03:08AM 18.9167 -66.1667 180° South 300 345 7,300 -1,200 Descending San Juan Center
03:09AM 18.8333 -66.1833 191° South 300 345 6,200 -960 Descending San Juan Center
03:10AM 18.7667 -66.1833 180° South 290 334 5,400 -840 Descending San Juan Center
03:11AM 18.6833 -66.1833 180° South 280 322 4,600 -840 Descending San Juan Center
03:12AM 18.6000 -66.1833 180° South 270 311 3,800 -840 Descending San Juan Center
03:13AM 18.5333 -66.1833 180° South 250 288 3,000 -660 Descending San Juan Center
03:14AM 18.4667 -66.1833 180° South 220 253 2,500 -780 Descending San Juan Center
03:15AM 18.4333 -66.1500 137° Southeast 190 219 1,500 -540 Descending San Juan Center
03:16AM 18.4333 -66.1000 90° East 190 219 1,500 -300 Level San Juan Center
03:17AM 18.4333 -66.0500 90° East 140 161 900 -660 Descending San Juan Center
03:18AM 18.4333 -66.0167 90° East 140 161 200 -720 Descending San Juan Center